Time;durP1;ratioP1;P1;durP2;ratioP2;P2;SDS_P1;SDS_P2;PMS_P1;PMS_P2;Temp;Humidity;BMP_temperature;BMP_pressure;BME280_temperature;BME280_humidity;BME280_pressure;Samples;Min_cycle;Max_cycle;Signal;HPM_P1;HPM_P2
2022/08/02 00:00:40;;;;;;;5.00;2.88;;;16.70;99.90;;;;;;5106627;28;20204;-51
2022/08/02 00:03:08;;;;;;;5.65;3.00;;;16.60;99.90;;;;;;5112178;28;20729;-51
2022/08/02 00:05:37;;;;;;;5.00;3.13;;;16.50;99.90;;;;;;5113263;28;20203;-51
2022/08/02 00:08:07;;;;;;;3.40;3.00;;;16.50;99.90;;;;;;5102291;28;20268;-50
2022/08/02 00:10:35;;;;;;;4.30;3.30;;;16.50;99.90;;;;;;5113436;28;20207;-51
2022/08/02 00:13:03;;;;;;;4.15;3.10;;;16.50;99.90;;;;;;5100013;28;20256;-51
2022/08/02 00:15:32;;;;;;;6.97;3.28;;;16.50;99.90;;;;;;5105898;28;20245;-51
2022/08/02 00:18:01;;;;;;;3.20;2.92;;;16.50;99.90;;;;;;5090474;28;20224;-51
2022/08/02 00:20:29;;;;;;;4.45;3.63;;;16.40;99.90;;;;;;5082092;28;20212;-51
2022/08/02 00:22:57;;;;;;;4.65;3.22;;;16.40;99.90;;;;;;5089920;28;20228;-51
2022/08/02 00:25:25;;;;;;;3.58;2.95;;;16.30;99.90;;;;;;5078762;28;20212;-52
2022/08/02 00:27:53;;;;;;;3.67;3.30;;;16.30;99.90;;;;;;5092644;28;20269;-51
2022/08/02 00:30:21;;;;;;;4.20;3.42;;;16.20;99.90;;;;;;5092307;28;20255;-51
2022/08/02 00:32:51;;;;;;;3.67;3.33;;;16.20;99.90;;;;;;5089784;28;20197;-52
2022/08/02 00:35:19;;;;;;;8.88;3.38;;;16.20;99.90;;;;;;5092883;28;20212;-52
2022/08/02 00:37:47;;;;;;;3.60;3.22;;;16.20;99.90;;;;;;5092183;28;20274;-52
2022/08/02 00:40:15;;;;;;;3.35;3.05;;;16.20;99.90;;;;;;5092285;28;20208;-52
2022/08/02 00:42:43;;;;;;;7.38;4.25;;;16.20;99.90;;;;;;5091974;28;20277;-51
2022/08/02 00:45:11;;;;;;;5.65;3.53;;;16.10;99.90;;;;;;5092269;28;20237;-51
2022/08/02 00:47:40;;;;;;;4.30;3.78;;;16.00;99.90;;;;;;5092245;28;20197;-51
2022/08/02 00:50:10;;;;;;;5.45;3.70;;;16.00;99.90;;;;;;5082860;28;20686;-52
2022/08/02 00:52:38;;;;;;;3.97;3.58;;;15.90;99.90;;;;;;5087535;28;20843;-52
2022/08/02 00:55:06;;;;;;;6.22;3.97;;;15.90;99.90;;;;;;5092759;28;20204;-51
2022/08/02 00:57:35;;;;;;;3.75;3.20;;;15.90;99.90;;;;;;5091546;28;20304;-51
2022/08/02 01:00:08;;;;;;;6.90;3.90;;;15.80;99.90;;;;;;5092438;28;20204;-51
2022/08/02 01:02:36;;;;;;;5.35;4.38;;;15.80;99.90;;;;;;5091916;28;20216;-51
2022/08/02 01:05:05;;;;;;;4.28;3.88;;;15.80;99.90;;;;;;5092161;28;20201;-51
2022/08/02 01:07:35;;;;;;;4.03;3.63;;;15.70;99.90;;;;;;5091047;28;20289;-51
2022/08/02 01:10:04;;;;;;;4.57;3.75;;;15.70;99.90;;;;;;5092014;28;20269;-52
2022/08/02 01:12:32;;;;;;;5.60;3.42;;;15.70;99.90;;;;;;5092102;28;20204;-52
2022/08/02 01:15:07;;;;;;;5.75;4.20;;;15.60;99.90;;;;;;5091573;28;20735;-51
2022/08/02 01:17:43;;;;;;;4.55;3.55;;;15.60;99.90;;;;;;5091410;28;20199;-51
2022/08/02 01:20:24;;;;;;;4.47;4.00;;;15.60;99.90;;;;;;5098670;28;20207;-52
2022/08/02 01:23:09;;;;;;;6.78;4.18;;;15.50;99.90;;;;;;5112642;28;20217;-51
2022/08/02 01:25:53;;;;;;;5.10;3.87;;;15.40;99.90;;;;;;5078651;28;20204;-51
2022/08/02 01:28:34;;;;;;;3.85;3.53;;;15.40;99.90;;;;;;5092449;28;20624;-51
2022/08/02 01:31:10;;;;;;;4.53;4.10;;;15.40;99.90;;;;;;5091210;28;20212;-51
2022/08/02 01:33:42;;;;;;;5.60;4.00;;;15.40;99.90;;;;;;5091926;28;20200;-50
2022/08/02 01:36:13;;;;;;;4.67;4.00;;;15.40;99.90;;;;;;5091605;28;20208;-51
2022/08/02 01:38:47;;;;;;;5.35;3.78;;;15.30;99.90;;;;;;5091295;28;20229;-51
2022/08/02 01:41:18;;;;;;;4.80;4.40;;;15.30;99.90;;;;;;5091491;28;20212;-51
2022/08/02 01:43:51;;;;;;;4.77;4.03;;;15.30;99.90;;;;;;5091234;28;20304;-51
2022/08/02 01:46:21;;;;;;;7.20;4.38;;;15.30;99.90;;;;;;5079664;28;20208;-51
2022/08/02 01:48:53;;;;;;;4.37;3.97;;;15.20;99.90;;;;;;5090526;28;20736;-52
2022/08/02 01:52:20;;;;;;;5.97;4.27;;;15.30;99.90;;;;;;5091020;28;20214;-52
2022/08/02 01:54:17;;;;;;;5.43;3.77;;;15.30;99.90;;;;;;5090333;28;20204;-51
2022/08/02 01:56:46;;;;;;;5.10;4.07;;;15.20;99.90;;;;;;5091115;28;20231;-52
2022/08/02 01:59:18;;;;;;;5.20;3.55;;;15.10;99.90;;;;;;5090087;28;20232;-51
2022/08/02 02:01:49;;;;;;;5.67;4.77;;;15.10;99.90;;;;;;5090314;28;20208;-51
2022/08/02 02:04:17;;;;;;;6.60;4.20;;;15.00;99.90;;;;;;5077653;28;20327;-51
2022/08/02 02:06:47;;;;;;;5.57;4.30;;;15.10;99.90;;;;;;5073622;28;20209;-52
2022/08/02 02:09:17;;;;;;;3.87;3.57;;;15.10;99.90;;;;;;5076139;28;20277;-52
2022/08/02 02:11:46;;;;;;;6.33;4.13;;;15.00;99.90;;;;;;5089642;28;20262;-51
2022/08/02 02:14:38;;;;;;;5.63;4.23;;;15.10;99.90;;;;;;5090895;28;20295;-51
2022/08/02 02:17:08;;;;;;;6.87;4.30;;;15.10;99.90;;;;;;5090616;28;20234;-51
2022/08/02 02:19:59;;;;;;;5.77;4.10;;;15.00;99.90;;;;;;5088203;28;20299;-51
2022/08/02 02:22:28;;;;;;;6.07;3.90;;;15.00;99.90;;;;;;5078790;28;20704;-51
2022/08/02 02:24:56;;;;;;;4.63;4.20;;;14.90;99.90;;;;;;5090526;28;20269;-52
2022/08/02 02:27:25;;;;;;;4.47;3.77;;;14.90;99.90;;;;;;5090257;28;20208;-52
2022/08/02 02:29:56;;;;;;;5.20;4.00;;;15.00;99.90;;;;;;5090289;28;20696;-51
2022/08/02 02:32:27;;;;;;;5.13;3.93;;;14.90;99.90;;;;;;5090034;28;20672;-51
2022/08/02 02:34:56;;;;;;;4.20;3.90;;;14.90;99.90;;;;;;5089707;28;20851;-51
2022/08/02 02:37:27;;;;;;;5.82;4.13;;;14.90;99.90;;;;;;5070414;28;20614;-51
2022/08/02 02:39:56;;;;;;;4.77;4.27;;;14.90;99.90;;;;;;5082576;28;20254;-51
2022/08/02 02:42:30;;;;;;;5.70;4.17;;;14.90;99.90;;;;;;5090397;28;20257;-51
2022/08/02 02:45:00;;;;;;;4.30;3.90;;;14.90;99.90;;;;;;5090379;28;20711;-51
2022/08/02 02:47:30;;;;;;;4.43;3.87;;;14.90;99.90;;;;;;5089911;28;20622;-51
2022/08/02 02:50:10;;;;;;;5.87;4.23;;;14.80;99.90;;;;;;5090423;28;20689;-51
2022/08/02 02:52:40;;;;;;;5.03;4.53;;;14.80;99.90;;;;;;5089819;28;20204;-51
2022/08/02 02:55:09;;;;;;;5.03;4.30;;;14.70;99.90;;;;;;5090255;28;20216;-51
2022/08/02 02:57:38;;;;;;;5.97;4.03;;;14.80;99.90;;;;;;5089520;28;20269;-51
2022/08/02 03:00:11;;;;;;;5.13;3.70;;;14.70;99.90;;;;;;5090175;28;20598;-51
2022/08/02 03:02:40;;;;;;;5.23;3.90;;;14.70;99.90;;;;;;5089912;28;20236;-51
2022/08/02 03:05:09;;;;;;;5.00;4.50;;;14.70;99.90;;;;;;5101353;28;20216;-51
2022/08/02 03:07:39;;;;;;;5.00;4.40;;;14.70;99.90;;;;;;5109402;28;20891;-51
2022/08/02 03:10:08;;;;;;;4.17;3.77;;;14.70;99.90;;;;;;5110449;28;20256;-51
2022/08/02 03:12:37;;;;;;;5.00;4.17;;;14.70;99.90;;;;;;5092308;28;20634;-52
2022/08/02 03:15:08;;;;;;;4.53;4.00;;;14.70;99.90;;;;;;5089445;28;20677;-51
2022/08/02 03:17:41;;;;;;;4.90;4.20;;;14.70;99.90;;;;;;5089196;28;20204;-52
2022/08/02 03:20:11;;;;;;;4.93;4.00;;;14.70;99.90;;;;;;5089782;28;20219;-51
2022/08/02 03:22:40;;;;;;;4.73;4.33;;;14.60;99.90;;;;;;5089139;28;20204;-51
2022/08/02 03:25:09;;;;;;;6.50;4.83;;;14.60;99.90;;;;;;5089391;28;20665;-51
2022/08/02 03:27:37;;;;;;;5.57;4.03;;;14.60;99.90;;;;;;5089748;28;20208;-51
2022/08/02 03:30:09;;;;;;;5.57;4.33;;;14.60;99.90;;;;;;5089393;28;20204;-51
2022/08/02 03:32:39;;;;;;;5.13;4.20;;;14.60;99.90;;;;;;5089263;28;20291;-51
2022/08/02 03:35:10;;;;;;;4.67;4.30;;;14.60;99.90;;;;;;5089830;28;20276;-51
2022/08/02 03:37:40;;;;;;;4.80;4.20;;;14.50;99.90;;;;;;5088891;28;20204;-52
2022/08/02 03:40:11;;;;;;;5.87;4.90;;;14.60;99.90;;;;;;5089742;28;20212;-51
2022/08/02 03:42:40;;;;;;;5.07;4.57;;;14.50;99.90;;;;;;5088869;28;20995;-52
2022/08/02 03:45:12;;;;;;;4.10;3.67;;;14.60;99.90;;;;;;5089394;28;20785;-52
2022/08/02 03:47:41;;;;;;;4.13;3.60;;;14.50;99.90;;;;;;5096061;28;20211;-52
2022/08/02 03:50:12;;;;;;;5.30;4.10;;;14.50;99.90;;;;;;5109866;28;20804;-52
2022/08/02 03:52:42;;;;;;;4.60;4.20;;;14.50;99.90;;;;;;5109536;28;20576;-51
2022/08/02 03:55:11;;;;;;;4.33;3.93;;;14.40;99.90;;;;;;5109259;28;20208;-52
2022/08/02 03:57:39;;;;;;;5.60;3.97;;;14.40;99.90;;;;;;5109337;28;20238;-51
2022/08/02 04:00:11;;;;;;;4.43;4.07;;;14.40;99.90;;;;;;5109589;28;20260;-51
2022/08/02 04:02:40;;;;;;;4.73;4.33;;;14.40;99.90;;;;;;5110018;28;20636;-52
2022/08/02 04:05:08;;;;;;;7.20;5.10;;;14.40;99.90;;;;;;5109166;28;20223;-52
2022/08/02 04:07:36;;;;;;;4.83;4.13;;;14.40;99.90;;;;;;5109056;28;20212;-52
2022/08/02 04:10:24;;;;;;;5.30;4.80;;;14.40;99.90;;;;;;5109778;28;20294;-52
2022/08/02 04:12:53;;;;;;;6.10;4.93;;;14.40;99.90;;;;;;5089699;28;20261;-52
2022/08/02 04:15:23;;;;;;;6.93;4.47;;;14.40;99.90;;;;;;5088985;28;20196;-52
2022/08/02 04:17:56;;;;;;;5.53;5.03;;;14.40;99.90;;;;;;5088446;28;20224;-52
2022/08/02 04:20:29;;;;;;;4.63;4.23;;;14.40;99.90;;;;;;5094194;28;20672;-51
2022/08/02 04:23:02;;;;;;;5.57;4.57;;;14.40;99.90;;;;;;5108704;28;20246;-52
2022/08/02 04:25:32;;;;;;;5.33;4.33;;;14.50;99.90;;;;;;5112732;28;20257;-51
2022/08/02 04:28:09;;;;;;;5.15;4.35;;;14.50;99.90;;;;;;5105481;28;20228;-51
2022/08/02 04:30:47;;;;;;;5.00;4.50;;;14.50;99.90;;;;;;5110601;28;20336;-51
2022/08/02 04:33:16;;;;;;;4.40;4.00;;;14.50;99.90;;;;;;5104992;28;20234;-51
2022/08/02 04:35:45;;;;;;;5.77;4.27;;;14.60;99.90;;;;;;5109569;28;20712;-51
2022/08/02 04:38:14;;;;;;;5.57;4.50;;;14.70;99.90;;;;;;5112777;28;20925;-52
2022/08/02 04:40:51;;;;;;;4.50;4.07;;;14.70;99.90;;;;;;5112707;28;20231;-51
2022/08/02 04:43:20;;;;;;;5.00;4.50;;;14.90;99.90;;;;;;5112838;28;20264;-51
2022/08/02 04:45:52;;;;;;;4.15;3.75;;;15.60;99.90;;;;;;5112083;28;20199;-52
2022/08/02 04:48:22;;;;;;;3.65;3.40;;;16.60;99.90;;;;;;5113092;28;20224;-52
2022/08/02 04:50:50;;;;;;;3.50;3.20;;;17.30;99.90;;;;;;5112142;28;20253;-51
2022/08/02 04:53:19;;;;;;;3.38;3.08;;;17.90;99.90;;;;;;5113613;28;20207;-51
2022/08/02 04:55:47;;;;;;;3.38;3.08;;;18.30;99.90;;;;;;5114229;28;20229;-51
2022/08/02 04:58:15;;;;;;;3.25;2.92;;;18.40;99.90;;;;;;5114296;28;20257;-53
2022/08/02 05:01:05;;;;;;;3.92;2.97;;;18.90;99.90;;;;;;5105926;28;20258;-53
2022/08/02 05:03:33;;;;;;;4.25;2.80;;;19.10;99.90;;;;;;5112229;28;20287;-52
2022/08/02 05:06:01;;;;;;;3.90;3.25;;;18.60;99.90;;;;;;5112501;28;20199;-52
2022/08/02 05:08:29;;;;;;;5.45;2.90;;;18.20;99.90;;;;;;5083685;28;20288;-51
2022/08/02 05:10:57;;;;;;;4.00;3.22;;;18.40;99.90;;;;;;5111202;28;20208;-51
2022/08/02 05:13:25;;;;;;;5.97;2.78;;;18.30;99.90;;;;;;5090075;28;20677;-52
2022/08/02 05:15:53;;;;;;;2.95;2.72;;;18.50;99.90;;;;;;5091786;28;20569;-52
2022/08/02 05:18:22;;;;;;;2.65;2.42;;;19.30;99.90;;;;;;5091737;28;20365;-51
2022/08/02 05:20:51;;;;;;;4.22;3.00;;;19.50;99.90;;;;;;5089363;28;20212;-52
2022/08/02 05:23:25;;;;;;;3.08;2.85;;;19.40;99.90;;;;;;5086346;28;20212;-51
2022/08/02 05:25:53;;;;;;;3.97;3.10;;;19.50;99.90;;;;;;5090477;28;20645;-52
2022/08/02 05:28:21;;;;;;;3.05;2.75;;;19.60;99.90;;;;;;5091041;28;20254;-51
2022/08/02 05:30:49;;;;;;;3.83;3.47;;;19.60;99.90;;;;;;5090773;28;20588;-55
2022/08/02 05:33:17;;;;;;;3.88;3.00;;;19.30;99.90;;;;;;5091172;28;20212;-52
2022/08/02 05:35:47;;;;;;;4.72;2.85;;;19.50;99.90;;;;;;5090538;28;20249;-52
2022/08/02 05:38:15;;;;;;;3.88;3.10;;;19.40;99.90;;;;;;5090608;28;20675;-52
2022/08/02 05:40:43;;;;;;;4.72;3.15;;;19.20;99.90;;;;;;5090764;28;20208;-52
2022/08/02 05:43:23;;;;;;;3.40;3.20;;;19.40;99.90;;;;;;5090583;28;20688;-52
2022/08/02 05:45:53;;;;;;;3.30;3.00;;;20.10;99.90;;;;;;5091208;28;20652;-52
2022/08/02 05:48:22;;;;;;;3.58;3.17;;;20.60;99.90;;;;;;5090106;28;20314;-52
2022/08/02 05:51:04;;;;;;;3.22;2.83;;;20.60;99.90;;;;;;5092088;28;20635;-52
2022/08/02 05:53:38;;;;;;;2.78;2.58;;;21.10;99.90;;;;;;5090616;28;20203;-52
2022/08/02 05:56:17;;;;;;;2.33;2.13;;;21.70;99.90;;;;;;5091686;28;20234;-52
2022/08/02 05:58:50;;;;;;;4.65;3.00;;;21.60;99.90;;;;;;5090401;28;20314;-52
2022/08/02 06:01:32;;;;;;;3.78;3.47;;;21.60;99.90;;;;;;5090594;28;20204;-51
2022/08/02 06:04:01;;;;;;;3.35;2.72;;;21.70;99.90;;;;;;5090844;28;20211;-52
2022/08/02 06:06:33;;;;;;;4.80;2.60;;;21.30;99.90;;;;;;5090518;28;20666;-52
2022/08/02 06:09:10;;;;;;;3.25;2.40;;;21.30;99.90;;;;;;5091590;28;20275;-52
2022/08/02 06:11:39;;;;;;;3.00;2.80;;;21.30;99.90;;;;;;5088785;28;20200;-52
2022/08/02 06:14:08;;;;;;;2.88;2.67;;;22.00;99.90;;;;;;5090940;28;20213;-52
2022/08/02 06:16:36;;;;;;;3.95;2.40;;;22.50;99.90;;;;;;5090595;28;20681;-52
2022/08/02 06:19:12;;;;;;;3.30;3.00;;;22.80;99.90;;;;;;5092674;28;20236;-50
2022/08/02 06:21:43;;;;;;;3.30;3.00;;;23.10;99.90;;;;;;5076586;28;20734;-53
2022/08/02 06:24:33;;;;;;;3.60;2.95;;;23.20;99.90;;;;;;5090344;28;20313;-51
2022/08/02 06:27:02;;;;;;;2.88;2.67;;;23.60;99.90;;;;;;5090803;28;20200;-52
2022/08/02 06:29:32;;;;;;;4.68;3.20;;;24.10;99.90;;;;;;5090638;28;20224;-51
2022/08/02 06:32:07;;;;;;;3.50;3.20;;;24.30;99.90;;;;;;5076517;28;20204;-52
2022/08/02 06:34:37;;;;;;;3.78;2.83;;;24.60;99.90;;;;;;5090397;28;20204;-53
2022/08/02 06:37:14;;;;;;;3.22;2.92;;;24.80;99.90;;;;;;5090474;28;20226;-52
2022/08/02 06:39:46;;;;;;;4.97;3.30;;;25.00;99.90;;;;;;5083170;28;20228;-52
2022/08/02 06:42:21;;;;;;;3.40;2.92;;;25.30;99.90;;;;;;5073344;28;20266;-52
2022/08/02 06:44:54;;;;;;;3.63;2.90;;;25.40;99.90;;;;;;5084233;28;20224;-52
2022/08/02 06:47:25;;;;;;;3.28;3.08;;;25.40;99.90;;;;;;5089596;28;20839;-53
2022/08/02 06:49:53;;;;;;;3.95;3.65;;;25.80;99.90;;;;;;5089834;28;20763;-52
2022/08/02 06:52:27;;;;;;;4.65;3.50;;;26.00;99.90;;;;;;5089753;28;20232;-53
2022/08/02 06:54:59;;;;;;;4.30;3.65;;;26.20;99.90;;;;;;5089531;28;20282;-53
2022/08/02 06:57:28;;;;;;;3.50;3.20;;;26.20;99.90;;;;;;5089116;28;20277;-52
2022/08/02 06:59:57;;;;;;;4.95;4.07;;;26.00;99.90;;;;;;5091279;28;20204;-53
2022/08/02 07:02:25;;;;;;;5.22;3.90;;;26.30;99.90;;;;;;5089491;28;20577;-53
2022/08/02 07:04:54;;;;;;;3.60;3.30;;;26.40;99.90;;;;;;5089947;28;20220;-52
2022/08/02 07:07:22;;;;;;;4.05;3.47;;;26.60;99.90;;;;;;5090326;28;20204;-52
2022/08/02 07:09:52;;;;;;;3.90;3.50;;;26.80;99.90;;;;;;5089523;28;20228;-52
2022/08/02 07:12:29;;;;;;;3.55;3.25;;;26.90;99.90;;;;;;5086374;28;20199;-52
2022/08/02 07:14:57;;;;;;;3.92;3.58;;;27.00;99.90;;;;;;5089861;28;20196;-53
2022/08/02 07:17:25;;;;;;;3.67;3.30;;;27.10;99.90;;;;;;5089394;28;20208;-53
2022/08/02 07:19:53;;;;;;;3.45;3.10;;;27.10;99.90;;;;;;5089402;28;20257;-53
2022/08/02 07:22:22;;;;;;;3.22;2.92;;;27.00;99.90;;;;;;5084305;28;20955;-51
2022/08/02 07:24:52;;;;;;;4.60;3.50;;;27.20;99.90;;;;;;5087528;28;20207;-52
2022/08/02 07:27:20;;;;;;;2.97;2.78;;;27.30;99.90;;;;;;5088930;28;20734;-53
2022/08/02 07:29:48;;;;;;;4.05;2.83;;;27.40;99.90;;;;;;5088755;28;20220;-52
2022/08/02 07:32:17;;;;;;;3.10;2.80;;;27.40;99.90;;;;;;5088815;28;20628;-52
2022/08/02 07:34:46;;;;;;;3.42;3.13;;;27.60;99.90;;;;;;5088897;28;20208;-53
2022/08/02 07:37:21;;;;;;;4.13;3.10;;;27.70;99.90;;;;;;5089473;28;20211;-52
2022/08/02 07:40:12;;;;;;;3.50;3.20;;;27.50;99.90;;;;;;5086346;28;20587;-52
2022/08/02 07:42:47;;;;;;;3.55;2.67;;;27.80;99.90;;;;;;5089259;28;20204;-53
2022/08/02 07:45:15;;;;;;;3.67;2.60;;;27.80;99.90;;;;;;5089409;28;20224;-52
2022/08/02 07:47:44;;;;;;;2.50;2.30;;;27.70;99.90;;;;;;5088337;28;20238;-53
2022/08/02 07:50:14;;;;;;;2.40;2.20;;;27.60;99.90;;;;;;5089125;28;20204;-53
2022/08/02 07:52:43;;;;;;;3.08;2.35;;;27.60;99.90;;;;;;5087489;28;20270;-52
2022/08/02 07:55:14;;;;;;;3.88;2.08;;;27.70;99.90;;;;;;5089865;28;20337;-51
2022/08/02 07:57:42;;;;;;;2.55;2.35;;;27.50;99.90;;;;;;5089390;28;20289;-51
2022/08/02 08:00:15;;;;;;;3.08;2.80;;;27.40;99.90;;;;;;5091730;28;20583;-52
2022/08/02 08:02:45;;;;;;;3.95;2.90;;;27.30;99.90;;;;;;5092867;28;20219;-52
2022/08/02 08:05:13;;;;;;;4.35;3.30;;;27.40;99.90;;;;;;5093103;28;20250;-52
2022/08/02 08:07:41;;;;;;;3.38;3.08;;;27.50;99.90;;;;;;5092201;28;20196;-52
2022/08/02 08:10:11;;;;;;;4.95;3.60;;;27.40;99.90;;;;;;5093050;28;20269;-52
2022/08/02 08:12:39;;;;;;;4.30;3.92;;;27.10;99.90;;;;;;5093509;28;20203;-51
2022/08/02 08:15:09;;;;;;;3.60;3.30;;;27.00;99.90;;;;;;5101737;28;20988;-52
2022/08/02 08:17:37;;;;;;;6.47;4.13;;;26.80;99.90;;;;;;5104705;28;20308;-51
2022/08/02 08:20:06;;;;;;;3.58;3.25;;;26.80;99.90;;;;;;5094040;28;20208;-51
2022/08/02 08:22:37;;;;;;;3.42;3.08;;;26.60;99.90;;;;;;5107091;28;20204;-52
2022/08/02 08:25:06;;;;;;;3.33;3.03;;;26.60;99.90;;;;;;5103555;28;20200;-52
2022/08/02 08:27:36;;;;;;;6.50;3.25;;;26.70;99.90;;;;;;5113910;28;20239;-52
2022/08/02 08:30:04;;;;;;;4.57;2.70;;;26.70;99.90;;;;;;5115272;28;20248;-51
2022/08/02 08:32:32;;;;;;;4.10;3.70;;;26.50;99.90;;;;;;5098203;28;20208;-51
2022/08/02 08:35:02;;;;;;;3.55;3.25;;;26.40;99.90;;;;;;5093031;28;20230;-53
2022/08/02 08:37:34;;;;;;;5.30;2.97;;;26.60;99.90;;;;;;5103569;28;21829;-52
2022/08/02 08:40:03;;;;;;;3.88;2.88;;;26.50;99.90;;;;;;5086498;28;20249;-52
2022/08/02 08:42:32;;;;;;;3.47;2.80;;;26.50;99.90;;;;;;5112686;28;20668;-52
2022/08/02 08:45:02;;;;;;;3.88;3.47;;;26.40;99.90;;;;;;5112937;28;20261;-52
2022/08/02 08:47:35;;;;;;;3.28;2.97;;;26.20;99.90;;;;;;5112305;28;20227;-52
2022/08/02 08:50:05;;;;;;;5.13;2.78;;;26.40;99.90;;;;;;5098803;28;20340;-52
2022/08/02 08:52:39;;;;;;;3.42;3.15;;;26.50;99.90;;;;;;5112374;28;20219;-53
2022/08/02 08:55:10;;;;;;;3.70;3.20;;;26.50;99.90;;;;;;5112720;28;20199;-53
2022/08/02 08:57:41;;;;;;;3.15;2.70;;;26.60;99.90;;;;;;5112217;28;20212;-52
2022/08/02 09:00:12;;;;;;;3.78;3.20;;;26.60;99.90;;;;;;5112575;28;20219;-52
2022/08/02 09:02:42;;;;;;;3.65;3.30;;;26.50;99.90;;;;;;5112587;28;20204;-52
2022/08/02 09:05:11;;;;;;;3.33;2.92;;;26.40;99.90;;;;;;5111575;28;20303;-52
2022/08/02 09:07:41;;;;;;;3.17;2.97;;;26.20;99.90;;;;;;5112022;28;20293;-52
2022/08/02 09:10:36;;;;;;;3.33;3.03;;;26.20;99.90;;;;;;5111299;28;20231;-51
2022/08/02 09:13:10;;;;;;;2.90;2.63;;;26.20;99.90;;;;;;5108842;28;20741;-52
2022/08/02 09:16:00;;;;;;;2.83;2.30;;;26.30;99.90;;;;;;5112015;28;20294;-52
2022/08/02 09:18:43;;;;;;;3.50;2.20;;;26.00;99.90;;;;;;5111749;28;20223;-52
2022/08/02 09:21:13;;;;;;;2.20;2.00;;;26.20;99.90;;;;;;5112096;28;20203;-52
2022/08/02 09:23:43;;;;;;;2.53;1.95;;;26.20;99.90;;;;;;5097373;28;20429;-52
2022/08/02 09:26:13;;;;;;;1.90;1.80;;;26.30;99.90;;;;;;5111935;28;20265;-52
2022/08/02 09:28:42;;;;;;;3.70;2.20;;;26.30;99.90;;;;;;5098963;28;20278;-53
2022/08/02 09:31:14;;;;;;;2.55;2.05;;;26.40;99.90;;;;;;5069233;28;20735;-52
2022/08/02 09:33:45;;;;;;;2.85;2.10;;;26.30;99.90;;;;;;5090267;28;20208;-52
2022/08/02 09:36:15;;;;;;;2.38;2.17;;;26.30;99.90;;;;;;5090298;28;20208;-52
2022/08/02 09:38:53;;;;;;;2.53;2.33;;;26.30;99.90;;;;;;5089840;28;20281;-51
2022/08/02 09:41:22;;;;;;;3.25;2.25;;;26.40;99.90;;;;;;5090662;28;20553;-53
2022/08/02 09:43:51;;;;;;;2.95;2.33;;;26.50;99.90;;;;;;5090933;28;20204;-52
2022/08/02 09:46:37;;;;;;;2.58;2.35;;;26.50;99.90;;;;;;5090773;28;20220;-53
2022/08/02 09:49:08;;;;;;;3.13;2.75;;;26.60;99.90;;;;;;5090175;28;20243;-53
2022/08/02 09:51:38;;;;;;;2.70;2.50;;;26.50;99.90;;;;;;5090540;28;20200;-52
2022/08/02 09:54:10;;;;;;;4.00;2.50;;;26.50;99.90;;;;;;5090858;28;20205;-53
2022/08/02 09:56:45;;;;;;;3.08;2.50;;;26.50;99.90;;;;;;5089764;28;20201;-52
2022/08/02 09:59:14;;;;;;;2.58;2.38;;;26.60;99.90;;;;;;5090081;28;20246;-53
2022/08/02 10:01:45;;;;;;;3.25;2.50;;;26.60;99.90;;;;;;5090276;28;20224;-53
2022/08/02 10:04:28;;;;;;;3.72;2.33;;;26.60;99.90;;;;;;5090653;28;20199;-52
2022/08/02 10:07:02;;;;;;;2.67;2.42;;;26.40;99.90;;;;;;5090193;28;20376;-52
2022/08/02 10:09:31;;;;;;;3.30;2.50;;;26.50;99.90;;;;;;5089149;28;20677;-52
2022/08/02 10:12:00;;;;;;;3.67;2.03;;;26.40;99.90;;;;;;5090362;28;20205;-52
2022/08/02 10:14:30;;;;;;;2.65;2.20;;;26.50;99.90;;;;;;5090989;28;20299;-52
2022/08/02 10:17:00;;;;;;;3.70;2.30;;;26.50;99.90;;;;;;5089832;28;20565;-52
2022/08/02 10:19:28;;;;;;;4.38;2.53;;;26.50;99.90;;;;;;5090294;28;20224;-52
2022/08/02 10:22:17;;;;;;;2.83;2.40;;;26.60;99.90;;;;;;5104101;28;20287;-52
2022/08/02 10:24:46;;;;;;;2.67;2.30;;;26.70;99.90;;;;;;5090128;28;20911;-52
2022/08/02 10:27:18;;;;;;;3.70;2.55;;;26.80;99.90;;;;;;5090142;28;20274;-52
2022/08/02 10:29:48;;;;;;;2.45;2.20;;;26.80;99.90;;;;;;5099452;28;20276;-52
2022/08/02 10:32:29;;;;;;;2.83;2.58;;;26.90;99.90;;;;;;5109853;28;20209;-52
2022/08/02 10:35:04;;;;;;;2.42;2.22;;;26.90;99.90;;;;;;5100091;28;20268;-52
2022/08/02 10:37:53;;;;;;;2.63;2.42;;;26.90;99.90;;;;;;5109529;28;20235;-51
2022/08/02 10:40:25;;;;;;;2.75;2.42;;;27.10;99.90;;;;;;5110251;28;20881;-52
2022/08/02 10:42:58;;;;;;;2.40;2.05;;;27.20;99.90;;;;;;5110208;28;20204;-52
2022/08/02 10:45:27;;;;;;;2.70;2.45;;;27.20;99.90;;;;;;5081545;28;20957;-53
2022/08/02 10:48:08;;;;;;;2.60;2.40;;;27.20;99.90;;;;;;5084089;28;20232;-52
2022/08/02 10:50:55;;;;;;;2.58;2.38;;;27.30;99.90;;;;;;5089879;28;20264;-53
2022/08/02 10:53:28;;;;;;;3.72;2.10;;;27.30;99.90;;;;;;5089386;28;20207;-52
2022/08/02 10:55:58;;;;;;;3.47;2.20;;;27.30;99.90;;;;;;5089543;28;20222;-52
2022/08/02 10:58:28;;;;;;;2.30;2.10;;;27.50;99.90;;;;;;5089202;28;20236;-51
2022/08/02 11:00:58;;;;;;;3.08;2.45;;;27.50;99.90;;;;;;5089640;28;20240;-53
2022/08/02 11:03:40;;;;;;;3.92;2.47;;;27.60;99.90;;;;;;5088241;28;20749;-52
2022/08/02 11:06:10;;;;;;;2.17;2.05;;;27.70;99.90;;;;;;5089868;28;20207;-52
2022/08/02 11:09:30;;;;;;;2.35;2.10;;;27.60;99.90;;;;;;5077678;28;20232;-52
2022/08/02 11:12:02;;;;;;;3.03;2.15;;;27.60;99.90;;;;;;5089339;28;20557;-53
2022/08/02 11:14:31;;;;;;;2.70;2.15;;;27.60;99.90;;;;;;5089382;28;20212;-52
2022/08/02 11:17:14;;;;;;;2.83;2.42;;;27.40;99.90;;;;;;5089210;28;20200;-52
2022/08/02 11:20:16;;;;;;;3.72;2.25;;;27.40;99.90;;;;;;5089420;28;20235;-53
2022/08/02 11:22:46;;;;;;;3.60;2.15;;;27.30;99.90;;;;;;5077648;28;20204;-53
2022/08/02 11:25:35;;;;;;;3.03;2.50;;;27.20;99.90;;;;;;5082695;28;20200;-52
2022/08/02 11:28:25;;;;;;;2.63;2.42;;;27.10;99.90;;;;;;5081823;28;20322;-52
2022/08/02 11:30:57;;;;;;;2.65;2.30;;;27.30;99.90;;;;;;5090387;28;20211;-51
2022/08/02 11:33:31;;;;;;;3.25;2.20;;;27.30;99.80;;;;;;5079070;28;20215;-52
2022/08/02 11:36:05;;;;;;;4.80;2.42;;;27.30;99.00;;;;;;5089140;28;20269;-52
2022/08/02 11:38:34;;;;;;;2.25;2.05;;;27.30;99.50;;;;;;5079514;28;20220;-52
2022/08/02 11:41:04;;;;;;;2.88;2.10;;;27.20;98.30;;;;;;5089228;28;20200;-52
2022/08/02 11:43:37;;;;;;;3.10;2.78;;;27.20;99.90;;;;;;5088640;28;20203;-52
2022/08/02 11:46:12;;;;;;;3.08;2.50;;;27.40;99.90;;;;;;5089389;28;20238;-52
2022/08/02 11:48:42;;;;;;;2.75;2.20;;;27.60;99.90;;;;;;5088115;28;20421;-52
2022/08/02 11:51:14;;;;;;;2.55;2.30;;;27.60;99.90;;;;;;5089113;28;20205;-52
2022/08/02 11:53:44;;;;;;;3.60;2.28;;;27.70;99.90;;;;;;5088550;28;20208;-52
2022/08/02 11:56:13;;;;;;;5.00;2.20;;;27.50;99.70;;;;;;5082020;28;20296;-52
2022/08/02 11:59:02;;;;;;;4.47;2.60;;;27.30;99.90;;;;;;5088226;28;20232;-52
2022/08/02 12:01:31;;;;;;;2.75;2.50;;;27.10;99.60;;;;;;5087986;28;20204;-52
2022/08/02 12:04:12;;;;;;;2.40;2.20;;;27.10;99.90;;;;;;5102493;28;20264;-51
2022/08/02 12:06:41;;;;;;;2.90;2.60;;;27.20;99.90;;;;;;5109789;28;20219;-50
2022/08/02 12:09:11;;;;;;;2.55;2.35;;;27.30;99.90;;;;;;5109150;28;20287;-49
2022/08/02 12:11:49;;;;;;;2.60;2.40;;;27.30;99.90;;;;;;5108372;28;20231;-52
2022/08/02 12:14:17;;;;;;;2.40;2.20;;;27.30;98.40;;;;;;5109902;28;20208;-51
2022/08/02 12:19:32;;;;;;;2.60;2.40;;;27.20;99.70;;;;;;5108937;28;20692;-51
2022/08/02 12:22:13;;;;;;;2.40;2.20;;;27.40;99.90;;;;;;5109480;28;20260;-51
2022/08/02 12:24:46;;;;;;;3.45;2.47;;;27.60;99.90;;;;;;5109124;28;20212;-52
2022/08/02 12:27:31;;;;;;;2.72;2.17;;;27.80;98.50;;;;;;5108425;28;20211;-52
2022/08/02 12:30:02;;;;;;;2.95;2.53;;;27.70;99.50;;;;;;5099193;28;20212;-52
2022/08/02 12:32:30;;;;;;;4.50;2.55;;;27.80;99.50;;;;;;5107356;28;20199;-52
2022/08/02 12:35:13;;;;;;;2.33;2.15;;;28.00;99.10;;;;;;5098364;28;20207;-52
2022/08/02 12:37:55;;;;;;;2.60;2.40;;;28.00;98.40;;;;;;5108967;28;20227;-52
2022/08/02 12:40:25;;;;;;;3.13;2.38;;;27.90;98.10;;;;;;5108836;28;20260;-52
2022/08/02 12:42:57;;;;;;;5.32;2.40;;;27.70;98.20;;;;;;5108812;28;20260;-52
2022/08/02 12:45:26;;;;;;;2.78;2.40;;;27.80;99.40;;;;;;5109570;28;20238;-52
2022/08/02 12:48:08;;;;;;;5.22;2.33;;;27.90;98.40;;;;;;5095434;28;20643;-53
2022/08/02 12:50:37;;;;;;;2.50;2.30;;;28.10;99.90;;;;;;5083721;28;20245;-52
2022/08/02 12:53:09;;;;;;;2.58;2.38;;;28.30;99.80;;;;;;5091370;28;20222;-52
2022/08/02 12:55:47;;;;;;;2.67;2.30;;;28.40;98.40;;;;;;5091644;28;20258;-52
2022/08/02 12:58:30;;;;;;;2.88;2.60;;;28.30;96.50;;;;;;5076686;28;20245;-52
2022/08/02 13:00:59;;;;;;;3.15;2.50;;;28.10;96.70;;;;;;5091578;28;20204;-52
2022/08/02 13:03:28;;;;;;;2.40;2.20;;;28.10;96.90;;;;;;5088638;28;20209;-52
2022/08/02 13:06:17;;;;;;;1.90;1.80;;;28.10;97.90;;;;;;5091890;28;20293;-52
2022/08/02 13:09:14;;;;;;;2.40;2.20;;;28.20;97.50;;;;;;5091332;28;20323;-52
2022/08/02 13:11:43;;;;;;;3.95;2.40;;;28.20;96.30;;;;;;5091717;28;20200;-52
2022/08/02 13:14:12;;;;;;;2.45;2.00;;;28.10;96.20;;;;;;5091360;28;20292;-52
2022/08/02 13:16:42;;;;;;;4.38;2.28;;;28.20;97.90;;;;;;5091750;28;20238;-52